Time;durP1;ratioP1;P1;durP2;ratioP2;P2;SDS_P1;SDS_P2;PMS_P1;PMS_P2;Temp;Humidity;BMP_temperature;BMP_pressure;BME280_temperature;BME280_humidity;BME280_pressure;Samples;Min_cycle;Max_cycle;Signal;HPM_P1;HPM_P2
2024/03/15 00:01:58;;;;;;;54.60;28.60;;;;;;;4.61;82.52;100202.20;130185;1265;106489;-78
2024/03/15 00:05:02;;;;;;;47.50;24.70;;;;;;;4.65;82.44;100198.05;130282;1263;98681;-79
2024/03/15 00:08:06;;;;;;;46.20;25.10;;;;;;;4.67;82.40;100202.77;130178;1264;108632;-79
2024/03/15 00:11:09;;;;;;;46.90;24.90;;;;;;;4.67;82.42;100197.48;130172;1264;108405;-79
2024/03/15 00:14:12;;;;;;;61.10;30.80;;;;;;;4.66;82.39;100194.93;130209;1258;97938;-79
2024/03/15 00:17:15;;;;;;;58.50;31.10;;;;;;;4.63;82.47;100195.86;130221;1265;97936;-78
2024/03/15 00:20:18;;;;;;;57.40;30.70;;;;;;;4.61;82.68;100195.48;130232;1267;98001;-79
2024/03/15 00:23:21;;;;;;;46.40;24.00;;;;;;;4.58;82.75;100191.31;130184;1257;99051;-78
2024/03/15 00:26:24;;;;;;;46.90;23.50;;;;;;;4.56;82.63;100189.95;130185;1262;98003;-79
2024/03/15 00:29:28;;;;;;;50.00;23.70;;;;;;;4.55;82.86;100190.17;130203;1265;107843;-78
2024/03/15 00:32:31;;;;;;;42.60;23.10;;;;;;;4.56;83.01;100187.30;130252;1266;106561;-78
2024/03/15 00:35:34;;;;;;;46.40;24.40;;;;;;;4.60;82.96;100186.83;130240;1267;98805;-78
2024/03/15 00:38:37;;;;;;;46.20;23.90;;;;;;;4.62;82.88;100180.80;130294;1264;99232;-78
2024/03/15 00:41:40;;;;;;;42.20;24.00;;;;;;;4.62;82.90;100183.83;130302;1265;98826;-77
2024/03/15 00:44:43;;;;;;;44.40;23.40;;;;;;;4.59;82.80;100181.73;130277;1257;98767;-78
2024/03/15 00:47:46;;;;;;;45.10;24.00;;;;;;;4.57;82.84;100180.71;130318;1258;98028;-77
2024/03/15 00:50:51;;;;;;;45.80;24.30;;;;;;;4.52;82.75;100179.64;130188;1264;98011;-78
2024/03/15 00:53:54;;;;;;;49.00;24.40;;;;;;;4.45;82.79;100180.14;130182;1267;107995;-78
2024/03/15 00:56:57;;;;;;;40.80;21.20;;;;;;;4.38;82.94;100180.35;130264;1263;99128;-79
2024/03/15 01:00:00;;;;;;;40.60;21.30;;;;;;;4.33;82.94;100180.67;130275;1265;98009;-78
2024/03/15 01:03:03;;;;;;;41.90;21.30;;;;;;;4.31;82.95;100179.77;130305;1265;108550;-78
2024/03/15 01:06:07;;;;;;;45.20;24.00;;;;;;;4.30;83.05;100175.06;130264;1265;107696;-78
2024/03/15 01:09:10;;;;;;;47.10;24.20;;;;;;;4.33;83.30;100169.81;130201;1268;107623;-78
2024/03/15 01:12:14;;;;;;;47.90;24.10;;;;;;;4.36;83.26;100164.31;130220;1257;107961;-78
2024/03/15 01:15:17;;;;;;;44.80;23.60;;;;;;;4.34;83.15;100167.23;130184;1265;109184;-78
2024/03/15 01:18:20;;;;;;;45.90;24.40;;;;;;;4.31;83.25;100164.84;130195;1258;108021;-79
2024/03/15 01:21:26;;;;;;;42.40;21.90;;;;;;;4.27;83.43;100160.04;130186;1265;107337;-78
2024/03/15 01:24:29;;;;;;;43.10;20.90;;;;;;;4.25;83.29;100160.54;130158;1262;106333;-78
2024/03/15 01:27:32;;;;;;;40.30;21.00;;;;;;;4.24;83.47;100160.27;130160;1267;107570;-79
2024/03/15 01:30:35;;;;;;;45.00;22.70;;;;;;;4.24;83.57;100159.31;130126;1267;106474;-78
2024/03/15 01:33:38;;;;;;;40.40;22.30;;;;;;;4.26;83.55;100160.23;130185;1263;98834;-78
2024/03/15 01:36:42;;;;;;;40.70;22.70;;;;;;;4.26;83.47;100155.14;130279;1257;106533;-77
2024/03/15 01:39:47;;;;;;;39.10;21.70;;;;;;;4.26;83.51;100160.40;130150;1265;108730;-78
2024/03/15 01:42:52;;;;;;;41.10;22.90;;;;;;;4.22;83.39;100154.39;130327;1265;108692;-78
2024/03/15 01:45:55;;;;;;;44.80;23.40;;;;;;;4.17;83.42;100157.77;130265;1261;108716;-78
2024/03/15 01:48:59;;;;;;;40.90;20.90;;;;;;;4.12;83.50;100155.87;130302;1265;107501;-77
2024/03/15 01:52:03;;;;;;;40.60;20.30;;;;;;;4.10;83.67;100154.42;130241;1267;107516;-78
2024/03/15 01:55:07;;;;;;;38.90;20.50;;;;;;;4.08;83.59;100152.06;130156;1257;107773;-77
2024/03/15 01:58:10;;;;;;;36.70;19.20;;;;;;;4.09;83.59;100158.73;130195;1265;107606;-78
2024/03/15 02:01:13;;;;;;;37.50;20.10;;;;;;;4.08;83.59;100154.75;130290;1258;99059;-80
2024/03/15 02:04:16;;;;;;;36.40;20.30;;;;;;;4.09;83.42;100152.89;130292;1267;106644;-78
2024/03/15 02:07:19;;;;;;;38.70;20.90;;;;;;;4.10;83.47;100150.70;130299;1257;98088;-78
2024/03/15 02:10:25;;;;;;;36.50;21.30;;;;;;;4.09;83.52;100149.35;130284;1257;98389;-78
2024/03/15 02:13:29;;;;;;;36.20;19.90;;;;;;;4.07;83.40;100150.06;130260;1257;106286;-78
2024/03/15 02:16:34;;;;;;;37.00;21.20;;;;;;;4.04;83.60;100150.11;130285;1264;106367;-78
2024/03/15 02:19:37;;;;;;;37.70;20.50;;;;;;;4.00;83.60;100149.16;130213;1257;107692;-78
2024/03/15 02:22:40;;;;;;;40.50;20.10;;;;;;;3.94;83.47;100146.42;130287;1265;107205;-79
2024/03/15 02:25:43;;;;;;;39.60;19.50;;;;;;;3.88;83.53;100145.27;130177;1258;108727;-78
2024/03/15 02:28:46;;;;;;;33.70;18.80;;;;;;;3.87;83.73;100144.13;130173;1258;99099;-78
2024/03/15 02:31:49;;;;;;;35.70;19.40;;;;;;;3.88;83.73;100147.23;130182;1268;98758;-78
2024/03/15 02:34:53;;;;;;;36.00;20.50;;;;;;;3.90;83.82;100145.10;130174;1265;97960;-78
2024/03/15 02:37:57;;;;;;;37.30;20.50;;;;;;;3.92;83.85;100141.46;130180;1262;107278;-78
2024/03/15 02:41:00;;;;;;;33.70;19.30;;;;;;;3.92;83.70;100138.80;130292;1257;108065;-78
2024/03/15 02:44:03;;;;;;;38.40;20.20;;;;;;;3.90;83.83;100137.60;130208;1264;106825;-78
2024/03/15 02:47:06;;;;;;;36.10;20.30;;;;;;;3.87;83.92;100138.16;130152;1261;107696;-79
2024/03/15 02:50:09;;;;;;;38.60;19.90;;;;;;;3.83;83.94;100142.14;130276;1264;108155;-79
2024/03/15 02:53:12;;;;;;;33.10;18.40;;;;;;;3.81;84.04;100136.33;130279;1264;99130;-78
2024/03/15 02:56:15;;;;;;;35.50;18.30;;;;;;;3.79;83.97;100137.70;130169;1265;106670;-78
2024/03/15 02:59:19;;;;;;;31.30;18.50;;;;;;;3.78;83.97;100138.65;130262;1267;98590;-78
2024/03/15 03:02:23;;;;;;;34.30;19.20;;;;;;;3.81;84.07;100139.27;130163;1265;108472;-78
2024/03/15 03:05:26;;;;;;;35.30;19.50;;;;;;;3.84;84.22;100134.52;130158;1262;107681;-78
2024/03/15 03:08:29;;;;;;;34.20;19.70;;;;;;;3.84;83.94;100130.42;130297;1258;107416;-78
2024/03/15 03:11:32;;;;;;;35.40;20.70;;;;;;;3.82;84.09;100130.47;130277;1276;97941;-78
2024/03/15 03:14:35;;;;;;;36.10;20.40;;;;;;;3.79;84.15;100132.73;130222;1265;107246;-79
2024/03/15 03:17:38;;;;;;;36.20;20.20;;;;;;;3.77;84.25;100134.17;130207;1257;108576;-79
2024/03/15 03:20:41;;;;;;;37.20;21.40;;;;;;;3.73;84.14;100140.07;130214;1280;107162;-79
2024/03/15 03:23:44;;;;;;;34.90;19.00;;;;;;;3.69;84.35;100141.08;130245;1261;108677;-79
2024/03/15 03:26:47;;;;;;;34.00;19.00;;;;;;;3.67;84.35;100142.41;130280;1262;98037;-79
2024/03/15 03:29:51;;;;;;;33.70;18.90;;;;;;;3.67;84.45;100142.42;130241;1258;98045;-79
2024/03/15 03:32:54;;;;;;;35.00;18.70;;;;;;;3.67;84.35;100146.98;130476;1262;106650;-78
2024/03/15 03:35:57;;;;;;;33.90;19.20;;;;;;;3.68;84.44;100146.61;130245;1256;98025;-86
2024/03/15 03:39:00;;;;;;;38.10;20.80;;;;;;;3.68;84.40;100150.23;132160;1257;107764;-78
2024/03/15 03:42:04;;;;;;;35.10;20.70;;;;;;;3.69;84.32;100149.88;130551;1264;99131;-78
2024/03/15 03:45:15;;;;;;;35.90;20.60;;;;;;;3.67;84.35;100148.57;130281;1256;107079;-77
2024/03/15 03:48:19;;;;;;;37.50;21.60;;;;;;;3.64;84.25;100146.04;130300;1264;106814;-79
2024/03/15 03:51:22;;;;;;;37.30;20.50;;;;;;;3.58;84.31;100147.65;130983;1256;107983;-80
2024/03/15 03:54:25;;;;;;;36.80;20.60;;;;;;;3.53;84.34;100143.11;130561;1263;98044;-80
2024/03/15 03:57:28;;;;;;;34.50;19.40;;;;;;;3.46;84.50;100148.33;130994;1257;106825;-81
2024/03/15 04:00:34;;;;;;;35.60;19.20;;;;;;;3.42;84.25;100151.30;130996;1261;109104;-81
2024/03/15 04:03:37;;;;;;;32.40;19.30;;;;;;;3.41;84.41;100156.30;130596;1264;108542;-81
2024/03/15 04:06:40;;;;;;;36.40;21.10;;;;;;;3.40;84.40;100152.44;130525;1258;98030;-81
2024/03/15 04:09:43;;;;;;;37.80;21.50;;;;;;;3.41;84.40;100146.95;130551;1257;107129;-81
2024/03/15 04:12:46;;;;;;;38.50;22.10;;;;;;;3.41;84.35;100151.16;130743;1265;106286;-81
2024/03/15 04:15:51;;;;;;;36.90;22.00;;;;;;;3.39;84.29;100151.14;130597;1260;106165;-81
2024/03/15 04:18:54;;;;;;;35.20;19.90;;;;;;;3.33;84.33;100150.67;130637;1257;106460;-81
2024/03/15 04:21:58;;;;;;;39.00;21.00;;;;;;;3.26;84.25;100152.23;130528;1258;107660;-80
2024/03/15 04:25:01;;;;;;;37.10;21.20;;;;;;;3.22;84.35;100157.63;130474;1262;108703;-80
2024/03/15 04:28:04;;;;;;;35.30;19.70;;;;;;;3.21;84.43;100157.02;130428;1257;98131;-81
2024/03/15 04:31:07;;;;;;;35.50;20.40;;;;;;;3.23;84.53;100155.09;130527;1264;98803;-81
2024/03/15 04:34:11;;;;;;;37.60;21.30;;;;;;;3.24;84.37;100156.27;130565;1258;105777;-81
2024/03/15 04:37:15;;;;;;;39.80;21.10;;;;;;;3.25;84.38;100155.15;130592;1257;108614;-81
2024/03/15 04:40:18;;;;;;;37.50;22.00;;;;;;;3.20;84.37;100150.20;130463;1264;107603;-81
2024/03/15 04:43:22;;;;;;;38.90;23.50;;;;;;;3.17;84.65;100157.09;130516;1258;106625;-81
2024/03/15 04:46:25;;;;;;;37.60;21.90;;;;;;;3.16;84.51;100157.34;130500;1261;106500;-81
2024/03/15 04:49:28;;;;;;;39.70;23.00;;;;;;;3.13;84.55;100156.98;130786;1264;107197;-80
2024/03/15 04:52:31;;;;;;;41.00;22.40;;;;;;;3.07;84.43;100155.45;130594;1262;106546;-80
2024/03/15 04:55:34;;;;;;;39.30;22.70;;;;;;;3.01;84.49;100156.59;130361;1259;98637;-80
2024/03/15 04:58:37;;;;;;;39.40;22.00;;;;;;;3.00;84.54;100157.56;130522;1264;99153;-80
2024/03/15 05:01:40;;;;;;;47.70;25.70;;;;;;;3.02;84.43;100157.42;130496;1257;97940;-80
2024/03/15 05:04:43;;;;;;;46.30;24.10;;;;;;;3.03;84.43;100162.08;130612;1257;98063;-80
2024/03/15 05:07:46;;;;;;;40.50;23.40;;;;;;;3.06;84.36;100167.17;130598;1264;99184;-80
2024/03/15 05:10:49;;;;;;;40.80;22.60;;;;;;;3.08;84.69;100166.48;130632;1259;98057;-80
2024/03/15 05:13:52;;;;;;;43.40;23.20;;;;;;;3.12;84.71;100164.96;130579;1264;98719;-81
2024/03/15 05:16:55;;;;;;;40.10;22.60;;;;;;;3.16;84.79;100165.40;130658;1257;107607;-82
2024/03/15 05:19:58;;;;;;;41.50;23.90;;;;;;;3.18;84.90;100169.52;130843;1257;98181;-82
2024/03/15 05:23:01;;;;;;;41.60;23.90;;;;;;;3.17;84.85;100169.60;130835;1264;108660;-83
2024/03/15 05:26:06;;;;;;;42.70;23.20;;;;;;;3.16;85.04;100168.92;130708;1262;107484;-85
2024/03/15 05:29:09;;;;;;;42.90;22.70;;;;;;;3.19;85.12;100168.77;130650;1265;108581;-80
2024/03/15 05:32:12;;;;;;;43.80;22.70;;;;;;;3.26;85.24;100170.36;130481;1263;108688;-80
2024/03/15 05:35:18;;;;;;;40.60;23.40;;;;;;;3.34;85.21;100167.69;130428;1265;98122;-80
2024/03/15 05:38:21;;;;;;;46.50;25.20;;;;;;;3.44;85.20;100168.02;130492;1259;108706;-80
2024/03/15 05:41:24;;;;;;;46.00;26.30;;;;;;;3.55;85.27;100165.65;130553;1258;108657;-80
2024/03/15 05:44:27;;;;;;;45.70;26.00;;;;;;;3.64;85.16;100165.68;130606;1264;108702;-80
2024/03/15 05:47:30;;;;;;;44.40;25.50;;;;;;;3.71;84.93;100168.02;130618;1262;98375;-80
2024/03/15 05:50:33;;;;;;;42.40;24.70;;;;;;;3.75;84.92;100168.46;130542;1265;107059;-80
2024/03/15 05:53:36;;;;;;;41.70;24.40;;;;;;;3.80;84.98;100168.77;130690;1257;107514;-80
2024/03/15 05:56:39;;;;;;;40.30;22.60;;;;;;;3.82;85.03;100168.10;130625;1261;107045;-80
2024/03/15 05:59:42;;;;;;;38.20;21.70;;;;;;;3.83;85.11;100167.27;130522;1265;106664;-80
2024/03/15 06:02:45;;;;;;;40.60;23.10;;;;;;;3.92;85.24;100164.73;130499;1263;97947;-80
2024/03/15 06:05:49;;;;;;;38.00;23.10;;;;;;;4.07;85.26;100167.70;130630;1258;98006;-80
2024/03/15 06:08:52;;;;;;;43.50;24.70;;;;;;;4.23;85.15;100169.83;130688;1258;108454;-80
2024/03/15 06:11:56;;;;;;;46.90;25.80;;;;;;;4.36;85.29;100171.34;130604;1264;107644;-80
2024/03/15 06:14:59;;;;;;;46.30;27.00;;;;;;;4.47;85.19;100174.55;130566;1265;106831;-80
2024/03/15 06:18:02;;;;;;;43.80;24.80;;;;;;;4.54;85.14;100176.45;130576;1257;108710;-80
2024/03/15 06:21:06;;;;;;;44.00;23.50;;;;;;;4.61;85.23;100174.17;130452;1259;107635;-80
2024/03/15 06:24:10;;;;;;;40.10;22.20;;;;;;;4.63;85.15;100179.51;130459;1262;108225;-80
2024/03/15 06:27:16;;;;;;;41.60;24.00;;;;;;;4.70;85.44;100171.38;130382;1260;108686;-80
2024/03/15 06:30:19;;;;;;;38.10;23.30;;;;;;;4.80;85.31;100172.20;130476;1261;108989;-80
2024/03/15 06:33:28;;;;;;;40.60;23.70;;;;;;;4.89;85.07;100172.23;130530;1257;107631;-80
2024/03/15 06:36:41;;;;;;;39.90;23.50;;;;;;;4.99;85.38;100174.08;130569;1264;106834;-80
2024/03/15 06:40:03;;;;;;;34.90;22.90;;;;;;;5.07;85.06;100174.17;130533;1258;106972;-80
2024/03/15 06:43:25;;;;;;;35.90;21.10;;;;;;;5.10;85.04;100175.39;130479;1258;108614;-80
2024/03/15 06:46:30;;;;;;;33.50;19.50;;;;;;;5.13;85.13;100178.70;130518;1260;105542;-80
2024/03/15 06:49:48;;;;;;;32.80;19.00;;;;;;;5.16;85.02;100181.13;130571;1265;106891;-80
2024/03/15 06:52:51;;;;;;;37.10;21.10;;;;;;;5.15;84.82;100179.56;130528;1264;108797;-80
2024/03/15 06:55:56;;;;;;;37.30;21.70;;;;;;;5.20;85.06;100186.09;130450;1264;99144;-80
2024/03/15 06:59:00;;;;;;;34.20;20.80;;;;;;;5.22;84.73;100180.64;130427;1265;108845;-80
2024/03/15 07:02:03;;;;;;;36.80;22.10;;;;;;;5.21;84.84;100187.23;130428;1263;108828;-80
2024/03/15 07:05:07;;;;;;;37.40;23.40;;;;;;;5.17;84.76;100185.39;130475;1264;99136;-80
2024/03/15 07:08:14;;;;;;;36.40;22.80;;;;;;;5.15;84.88;100181.87;130495;1261;106487;-80
2024/03/15 07:11:17;;;;;;;36.70;21.40;;;;;;;5.13;85.03;100183.48;130528;1261;108649;-80
2024/03/15 07:14:20;;;;;;;33.10;19.00;;;;;;;5.13;84.70;100185.72;130523;1262;99044;-80
2024/03/15 07:17:23;;;;;;;35.90;21.50;;;;;;;5.17;84.83;100188.44;130612;1260;98654;-80
2024/03/15 07:20:26;;;;;;;38.80;22.30;;;;;;;5.23;84.70;100184.09;130612;1259;107681;-80
2024/03/15 07:23:31;;;;;;;33.80;21.20;;;;;;;5.36;84.88;100180.20;130653;1262;107149;-80
2024/03/15 07:26:34;;;;;;;35.10;20.80;;;;;;;5.43;84.62;100177.84;130586;1258;108817;-80
2024/03/15 07:29:37;;;;;;;34.80;22.10;;;;;;;5.50;84.72;100175.20;130550;1258;107674;-80
2024/03/15 07:32:41;;;;;;;34.70;22.00;;;;;;;5.57;84.72;100175.55;130523;1257;106997;-80
2024/03/15 07:35:43;;;;;;;31.50;17.90;;;;;;;5.59;84.81;100177.53;130542;1259;107564;-80
2024/03/15 07:38:47;;;;;;;35.50;20.20;;;;;;;5.63;84.53;100182.34;130483;1264;108256;-80
2024/03/15 07:41:50;;;;;;;33.00;19.50;;;;;;;5.68;84.78;100180.54;130570;1258;107429;-80
2024/03/15 07:44:54;;;;;;;32.60;20.30;;;;;;;5.76;84.74;100182.82;130489;1264;107774;-80
2024/03/15 07:47:57;;;;;;;34.00;19.80;;;;;;;5.88;84.51;100186.27;130514;1258;106810;-81
2024/03/15 07:51:01;;;;;;;32.20;20.50;;;;;;;6.01;84.48;100186.48;130491;1265;108799;-80
2024/03/15 07:54:04;;;;;;;33.50;20.50;;;;;;;6.09;84.40;100186.89;130425;1262;107716;-80
2024/03/15 07:57:09;;;;;;;29.00;19.30;;;;;;;6.14;84.13;100188.11;130415;1264;106487;-80
2024/03/15 08:00:14;;;;;;;39.20;23.40;;;;;;;6.19;84.20;100186.44;130445;1258;107537;-80
2024/03/15 08:03:18;;;;;;;39.90;23.30;;;;;;;6.22;83.86;100180.73;130533;1264;107456;-81
2024/03/15 08:06:21;;;;;;;28.80;17.40;;;;;;;6.22;84.11;100183.35;130485;1259;107505;-80
2024/03/15 08:09:24;;;;;;;35.20;21.60;;;;;;;6.24;84.06;100183.88;130531;1263;108575;-80
2024/03/15 08:12:28;;;;;;;34.80;21.80;;;;;;;6.30;83.74;100183.75;130442;1262;107651;-80
2024/03/15 08:15:32;;;;;;;38.10;23.30;;;;;;;6.33;83.34;100180.17;130416;1264;107812;-80
2024/03/15 08:18:36;;;;;;;33.20;20.90;;;;;;;6.37;83.73;100177.73;130413;1257;106797;-80
2024/03/15 08:21:39;;;;;;;27.00;17.80;;;;;;;6.45;83.90;100183.56;130432;1259;109492;-80
2024/03/15 08:24:42;;;;;;;29.70;20.00;;;;;;;6.52;83.81;100188.35;130433;1257;107840;-80
2024/03/15 08:27:45;;;;;;;27.40;18.50;;;;;;;6.60;83.94;100194.52;130405;1260;108643;-80
2024/03/15 08:30:48;;;;;;;31.90;21.20;;;;;;;6.62;83.56;100192.23;130378;1265;108550;-80
2024/03/15 08:33:51;;;;;;;27.40;17.30;;;;;;;6.63;83.55;100196.34;130459;1259;106831;-80
2024/03/15 08:36:55;;;;;;;25.30;16.20;;;;;;;6.70;83.46;100196.18;130424;1257;97944;-80
2024/03/15 08:39:58;;;;;;;31.20;18.10;;;;;;;6.75;83.51;100188.14;130391;1260;107789;-80
2024/03/15 08:43:01;;;;;;;25.50;16.60;;;;;;;6.80;83.30;100189.64;130380;1260;107724;-80
2024/03/15 08:46:05;;;;;;;26.70;17.60;;;;;;;6.85;82.93;100190.80;130373;1264;107543;-82
2024/03/15 08:49:11;;;;;;;25.20;17.00;;;;;;;6.85;83.01;100189.23;130414;1265;106495;-80
2024/03/15 08:52:15;;;;;;;23.50;15.80;;;;;;;6.89;82.91;100185.88;130429;1264;107805;-82
2024/03/15 08:55:19;;;;;;;22.80;15.10;;;;;;;6.92;82.76;100182.08;130532;1260;107789;-81
2024/03/15 08:58:22;;;;;;;23.70;15.50;;;;;;;6.97;82.98;100182.33;130433;1264;108696;-81
2024/03/15 09:01:32;;;;;;;25.50;17.40;;;;;;;7.02;82.67;100179.66;130285;1260;98655;-81
2024/03/15 09:04:35;;;;;;;23.20;15.40;;;;;;;7.03;82.77;100180.47;130375;1262;108747;-80
2024/03/15 09:07:38;;;;;;;23.90;15.00;;;;;;;7.08;82.82;100183.36;130370;1264;106731;-81
2024/03/15 09:10:42;;;;;;;24.50;16.10;;;;;;;7.18;82.69;100179.54;130410;1265;97954;-81
2024/03/15 09:13:45;;;;;;;25.70;16.20;;;;;;;7.30;82.47;100181.16;130353;1264;107000;-81
2024/03/15 09:16:50;;;;;;;24.00;16.30;;;;;;;7.41;82.56;100183.48;130349;1264;98738;-81
2024/03/15 09:19:55;;;;;;;25.70;17.00;;;;;;;7.59;82.53;100175.93;130329;1260;108482;-81
2024/03/15 09:22:58;;;;;;;27.50;18.50;;;;;;;7.75;82.32;100172.80;130383;1264;108481;-80
2024/03/15 09:26:02;;;;;;;31.50;22.90;;;;;;;7.86;81.81;100169.46;130428;1265;98007;-81
2024/03/15 09:29:06;;;;;;;30.80;21.10;;;;;;;7.98;82.05;100170.33;130328;1264;106395;-80
2024/03/15 09:32:09;;;;;;;22.70;16.20;;;;;;;8.09;81.51;100167.02;130297;1264;144116;-81
2024/03/15 09:35:14;;;;;;;28.90;21.10;;;;;;;8.18;81.45;100171.33;130249;1265;107542;-80
2024/03/15 09:38:16;;;;;;;22.90;16.60;;;;;;;8.32;81.80;100167.11;130242;1265;107595;-81
2024/03/15 09:41:56;;;;;;;23.20;14.70;;;;;;;8.51;81.52;100164.30;127113;1293;635210;-80
2024/03/15 09:45:02;;;;;;;27.80;17.20;;;;;;;8.63;81.55;100161.45;130111;1266;106263;-81
2024/03/15 09:48:13;;;;;;;24.10;15.80;;;;;;;8.73;81.22;100163.36;130097;1266;107528;-80
2024/03/15 09:51:19;;;;;;;22.90;16.10;;;;;;;8.83;80.85;100157.23;130170;1274;106747;-80
2024/03/15 09:54:24;;;;;;;22.20;16.00;;;;;;;8.94;80.99;100153.59;130183;1266;108423;-80
2024/03/15 09:57:29;;;;;;;22.20;15.80;;;;;;;9.05;80.98;100147.41;130481;1263;108304;-81
2024/03/15 10:00:35;;;;;;;26.20;17.70;;;;;;;9.12;80.63;100150.64;130499;1264;108718;-80
2024/03/15 10:03:41;;;;;;;24.40;17.50;;;;;;;9.15;80.37;100149.78;130367;1263;107741;-80
2024/03/15 10:06:46;;;;;;;32.80;23.40;;;;;;;9.19;80.27;100141.61;130332;1264;108650;-81
2024/03/15 10:09:53;;;;;;;22.70;16.20;;;;;;;9.19;80.02;100140.40;130423;1263;107627;-79
2024/03/15 10:12:58;;;;;;;21.60;15.00;;;;;;;9.19;79.71;100147.33;130362;1263;107722;-79
2024/03/15 10:16:05;;;;;;;21.60;15.50;;;;;;;9.17;80.20;100143.75;131560;1254;106750;-81
2024/03/15 10:19:12;;;;;;;21.10;14.70;;;;;;;9.19;80.21;100140.57;131635;1254;107701;-80
2024/03/15 10:22:17;;;;;;;20.70;14.80;;;;;;;9.15;79.83;100137.53;131589;1257;108394;-80
2024/03/15 10:25:24;;;;;;;34.40;21.10;;;;;;;9.14;80.03;100136.25;131502;1261;108648;-81
2024/03/15 10:28:29;;;;;;;35.40;23.00;;;;;;;9.13;80.15;100128.52;131542;1253;108447;-80
2024/03/15 10:31:36;;;;;;;47.00;31.60;;;;;;;9.15;79.83;100124.77;131543;1257;108710;-80
2024/03/15 10:34:42;;;;;;;20.70;13.70;;;;;;;9.18;79.68;100124.47;131594;1253;107025;-80
2024/03/15 10:37:49;;;;;;;24.10;15.80;;;;;;;9.22;79.76;100120.36;131620;1260;108730;-80
2024/03/15 10:40:56;;;;;;;18.50;13.50;;;;;;;9.26;78.99;100118.40;131634;1254;106677;-80
2024/03/15 10:44:02;;;;;;;28.00;17.50;;;;;;;9.29;79.33;100116.84;131593;1253;106934;-80
2024/03/15 10:47:13;;;;;;;41.30;27.60;;;;;;;9.38;79.43;100114.55;131575;1250;108610;-80
2024/03/15 10:50:20;;;;;;;21.10;14.60;;;;;;;9.50;79.49;100111.19;131645;1270;108592;-80
2024/03/15 10:53:26;;;;;;;19.70;13.10;;;;;;;9.57;79.51;100104.91;131590;1261;108665;-80
2024/03/15 10:56:32;;;;;;;21.70;13.60;;;;;;;9.68;79.16;100107.77;131531;1254;107027;-80
2024/03/15 10:59:37;;;;;;;25.70;17.30;;;;;;;9.77;79.16;100106.34;131537;1253;105788;-80
2024/03/15 11:02:43;;;;;;;35.30;21.30;;;;;;;9.82;78.41;100103.81;131565;1253;107531;-80
2024/03/15 11:05:49;;;;;;;30.40;18.30;;;;;;;9.88;78.35;100098.35;131592;1253;107899;-80
2024/03/15 11:08:54;;;;;;;28.30;17.60;;;;;;;9.95;78.22;100090.36;131618;1254;106979;-80
2024/03/15 11:12:03;;;;;;;20.20;14.20;;;;;;;10.03;78.09;100091.48;131557;1254;108703;-80
2024/03/15 11:15:18;;;;;;;22.20;14.20;;;;;;;10.11;78.08;100089.26;131453;1253;108638;-80
2024/03/15 11:18:23;;;;;;;27.80;17.00;;;;;;;10.20;78.37;100085.89;131586;1253;106783;-80
2024/03/15 11:21:28;;;;;;;36.60;20.50;;;;;;;10.27;77.37;100080.75;131570;1253;108891;-80
2024/03/15 11:24:43;;;;;;;34.00;19.30;;;;;;;10.28;77.31;100079.06;131598;1248;108562;-80
2024/03/15 11:27:58;;;;;;;26.30;16.20;;;;;;;10.26;77.28;100081.97;131458;1261;107760;-80
2024/03/15 11:31:04;;;;;;;22.10;15.50;;;;;;;10.28;77.26;100072.97;131512;1254;107023;-81
2024/03/15 11:34:09;;;;;;;20.00;12.90;;;;;;;10.34;77.72;100071.70;131601;1253;107733;-80
2024/03/15 11:37:15;;;;;;;21.40;14.60;;;;;;;10.40;77.23;100063.77;131585;1263;106153;-80
2024/03/15 11:40:21;;;;;;;19.70;13.20;;;;;;;10.44;77.43;100062.50;131527;1253;107452;-80
2024/03/15 11:43:26;;;;;;;33.00;18.70;;;;;;;10.47;76.89;100060.05;131562;1261;107467;-80
2024/03/15 11:46:32;;;;;;;33.90;19.20;;;;;;;10.46;76.78;100056.23;131523;1254;107379;-80
2024/03/15 11:49:37;;;;;;;26.50;15.30;;;;;;;10.46;77.06;100052.58;131634;1253;106327;-80
2024/03/15 11:52:44;;;;;;;55.40;28.40;;;;;;;10.49;76.83;100051.19;131520;1253;106934;-81
2024/03/15 11:55:50;;;;;;;25.10;16.10;;;;;;;10.53;77.12;100051.06;131479;1253;106486;-80
2024/03/15 11:59:02;;;;;;;15.90;11.30;;;;;;;10.60;77.14;100044.85;131582;1248;107656;-80
2024/03/15 12:02:08;;;;;;;;;;;;;;;10.69;76.84;100040.41;131603;1254;108623;-81
2024/03/15 12:05:14;;;;;;;17.60;11.30;;;;;;;10.76;76.32;100033.99;131560;1252;107509;-80
2024/03/15 12:08:21;;;;;;;22.80;14.10;;;;;;;10.85;76.40;100029.26;131581;1253;106461;-80
2024/03/15 12:11:27;;;;;;;16.60;11.50;;;;;;;10.98;76.19;100024.34;131649;1248;108660;-80
2024/03/15 12:14:32;;;;;;;17.20;12.80;;;;;;;11.11;76.04;100021.98;131591;1261;107142;-80
2024/03/15 12:17:37;;;;;;;16.60;11.50;;;;;;;11.19;75.77;100018.23;131562;1254;108555;-80
2024/03/15 12:20:43;;;;;;;17.50;11.90;;;;;;;11.25;75.51;100014.53;131580;1251;106414;-80
2024/03/15 12:23:48;;;;;;;15.70;11.10;;;;;;;11.31;75.44;100015.59;131585;1254;107822;-80
2024/03/15 12:26:53;;;;;;;17.40;12.20;;;;;;;11.32;75.65;100008.11;131460;1248;108842;-81
2024/03/15 12:29:58;;;;;;;16.70;12.20;;;;;;;11.37;75.45;100004.71;131594;1252;106772;-81
2024/03/15 12:33:03;;;;;;;20.60;13.40;;;;;;;11.40;75.35;100002.64;131534;1261;107504;-80
2024/03/15 12:36:09;;;;;;;20.20;13.60;;;;;;;11.42;75.11;100000.14;131585;1254;108547;-80
2024/03/15 12:39:14;;;;;;;17.20;11.60;;;;;;;11.41;74.66;100002.03;131569;1253;106387;-80
2024/03/15 12:42:19;;;;;;;15.40;10.80;;;;;;;11.40;74.43;99997.42;131564;1252;107655;-81
2024/03/15 12:45:24;;;;;;;16.90;11.60;;;;;;;11.43;74.91;99994.34;131594;1254;107587;-80
2024/03/15 12:48:29;;;;;;;16.40;10.80;;;;;;;11.46;74.58;99996.67;131595;1252;107762;-80
2024/03/15 12:51:34;;;;;;;16.60;11.10;;;;;;;11.47;74.48;99992.67;131543;1248;107375;-80
2024/03/15 12:54:41;;;;;;;17.60;11.50;;;;;;;11.46;74.47;99993.81;131620;1248;107084;-81
2024/03/15 12:57:47;;;;;;;15.90;11.60;;;;;;;11.45;74.90;99991.14;131649;1257;108562;-80
2024/03/15 13:00:53;;;;;;;13.50;9.70;;;;;;;11.45;74.40;99990.59;131633;1253;108761;-80
2024/03/15 13:03:58;;;;;;;12.70;9.90;;;;;;;11.41;74.37;99989.48;131587;1253;107941;-80
2024/03/15 13:07:03;;;;;;;14.50;9.80;;;;;;;11.36;74.31;99987.92;131604;1261;107515;-80
2024/03/15 13:10:09;;;;;;;12.20;9.20;;;;;;;11.31;74.15;99985.73;131552;1248;106173;-81
2024/03/15 13:13:14;;;;;;;14.00;9.80;;;;;;;11.28;73.73;99981.48;131588;1254;107240;-80
2024/03/15 13:16:19;;;;;;;13.30;8.80;;;;;;;11.27;73.83;99979.64;131546;1263;106153;-81
2024/03/15 13:19:25;;;;;;;10.10;7.40;;;;;;;11.30;73.93;99971.35;131597;1253;108312;-80
2024/03/15 13:22:30;;;;;;;10.10;7.20;;;;;;;11.37;73.70;99969.31;131645;1251;106747;-80
2024/03/15 13:25:36;;;;;;;8.60;6.50;;;;;;;11.44;73.29;99962.14;131540;1254;106528;-83
2024/03/15 13:28:43;;;;;;;8.80;6.20;;;;;;;11.51;73.25;99955.83;131580;1254;108200;-81
2024/03/15 13:31:48;;;;;;;9.50;6.90;;;;;;;11.59;72.61;99957.80;131566;1251;106911;-81
2024/03/15 13:34:53;;;;;;;10.70;7.90;;;;;;;11.64;72.95;99955.14;131574;1263;108435;-81
2024/03/15 13:37:58;;;;;;;10.10;7.50;;;;;;;11.69;73.05;99954.93;131605;1251;106485;-81
2024/03/15 13:41:04;;;;;;;46.20;25.40;;;;;;;11.77;72.79;99948.61;131581;1261;108702;-81
2024/03/15 13:44:13;;;;;;;13.90;9.30;;;;;;;11.83;72.58;99951.48;131563;1251;107039;-81
2024/03/15 13:47:36;;;;;;;16.90;11.80;;;;;;;11.90;72.74;99946.69;131619;1251;107131;-80
2024/03/15 13:51:01;;;;;;;17.60;11.90;;;;;;;11.95;73.11;99947.48;131548;1261;108672;-80